Time;durP1;ratioP1;P1;durP2;ratioP2;P2;SDS_P1;SDS_P2;PMS_P1;PMS_P2;Temp;Humidity;BMP_temperature;BMP_pressure;BME280_temperature;BME280_humidity;BME280_pressure;Samples;Min_cycle;Max_cycle;Signal;HPM_P1;HPM_P2
2021/09/22 00:00:53;;;;;;;15.50;10.82;;;12.00;99.90;;;;;;2089924;28;20541;-69
2021/09/22 00:01:54;;;;;;;13.52;10.10;;;11.90;99.90;;;;;;2089732;28;20455;-69
2021/09/22 00:02:54;;;;;;;14.88;10.82;;;11.90;99.90;;;;;;2089002;28;20136;-69
2021/09/22 00:03:55;;;;;;;16.85;10.98;;;12.00;99.90;;;;;;2089060;28;20017;-69
2021/09/22 00:04:56;;;;;;;15.10;10.20;;;12.00;99.90;;;;;;2089729;28;20033;-69
2021/09/22 00:06:00;;;;;;;13.45;10.45;;;11.90;99.90;;;;;;2089070;28;20517;-69
2021/09/22 00:07:01;;;;;;;13.95;9.88;;;11.90;99.90;;;;;;2088952;28;20020;-69
2021/09/22 00:08:01;;;;;;;15.60;10.85;;;11.90;99.90;;;;;;2089889;28;20046;-68
2021/09/22 00:09:02;;;;;;;13.32;10.23;;;12.00;99.90;;;;;;2088926;28;20034;-68
2021/09/22 00:10:06;;;;;;;15.80;10.35;;;12.00;99.90;;;;;;2089665;28;20021;-69
2021/09/22 00:11:06;;;;;;;15.98;10.75;;;11.90;99.90;;;;;;2089633;28;20445;-68
2021/09/22 00:12:07;;;;;;;15.05;11.13;;;12.00;99.90;;;;;;2089513;28;20053;-68
2021/09/22 00:13:08;;;;;;;13.32;10.30;;;12.00;99.90;;;;;;2089453;28;20032;-68
2021/09/22 00:14:08;;;;;;;13.18;10.25;;;12.00;99.90;;;;;;2088729;28;20039;-68
2021/09/22 00:15:11;;;;;;;14.13;10.43;;;11.90;99.90;;;;;;2080537;28;20068;-68
2021/09/22 00:16:12;;;;;;;15.55;10.55;;;12.00;99.90;;;;;;2088785;28;20040;-68
2021/09/22 00:17:13;;;;;;;16.40;10.55;;;12.00;99.90;;;;;;2088881;28;20029;-68
2021/09/22 00:18:13;;;;;;;16.13;10.63;;;12.00;99.90;;;;;;2088479;28;20037;-68
2021/09/22 00:19:14;;;;;;;15.45;11.07;;;12.00;99.90;;;;;;2088745;28;20033;-68
2021/09/22 00:20:16;;;;;;;14.68;10.60;;;12.00;99.90;;;;;;2089401;28;20444;-68
2021/09/22 00:21:16;;;;;;;14.43;10.57;;;12.00;99.90;;;;;;2088944;28;20041;-68
2021/09/22 00:22:17;;;;;;;15.93;10.50;;;12.10;99.90;;;;;;2088752;28;20104;-69
2021/09/22 00:23:17;;;;;;;16.08;10.48;;;12.00;99.90;;;;;;2089493;28;20307;-67
2021/09/22 00:24:18;;;;;;;14.65;10.48;;;12.00;99.90;;;;;;2088846;28;20513;-68
2021/09/22 00:25:19;;;;;;;15.00;10.63;;;12.00;99.90;;;;;;2080863;28;20500;-69
2021/09/22 00:26:19;;;;;;;13.70;10.20;;;12.00;99.90;;;;;;2089064;28;20025;-69
2021/09/22 00:27:20;;;;;;;14.65;10.70;;;12.00;99.90;;;;;;2088619;28;20452;-68
2021/09/22 00:28:21;;;;;;;15.02;10.70;;;12.10;99.90;;;;;;2088681;28;20061;-68
2021/09/22 00:29:21;;;;;;;13.52;10.65;;;12.10;99.90;;;;;;2079835;28;20053;-68
2021/09/22 00:30:22;;;;;;;13.40;10.10;;;12.10;99.90;;;;;;2064083;28;20121;-68
2021/09/22 00:31:23;;;;;;;17.08;10.40;;;12.10;99.90;;;;;;2080571;28;20029;-69
2021/09/22 00:32:25;;;;;;;13.10;9.90;;;12.10;99.90;;;;;;2088608;28;20028;-68
2021/09/22 00:33:26;;;;;;;15.98;10.40;;;12.10;99.90;;;;;;2088639;28;20055;-68
2021/09/22 00:34:26;;;;;;;13.25;9.88;;;12.10;99.90;;;;;;2089266;28;20545;-68
2021/09/22 00:35:27;;;;;;;14.85;10.18;;;12.10;99.90;;;;;;2089354;28;20036;-68
2021/09/22 00:36:28;;;;;;;14.80;10.30;;;12.10;99.90;;;;;;2096711;28;20067;-68
2021/09/22 00:37:28;;;;;;;14.38;10.18;;;12.10;99.90;;;;;;2096791;28;20505;-68
2021/09/22 00:38:29;;;;;;;15.30;9.73;;;12.10;99.90;;;;;;2088371;28;20482;-69
2021/09/22 00:39:30;;;;;;;13.48;9.63;;;12.10;99.90;;;;;;2087949;28;20032;-68
2021/09/22 00:40:31;;;;;;;14.52;9.93;;;12.10;99.90;;;;;;2088069;28;20029;-69
2021/09/22 00:41:31;;;;;;;12.48;9.57;;;12.10;99.90;;;;;;2088668;28;20059;-67
2021/09/22 00:42:32;;;;;;;13.55;9.75;;;12.10;99.90;;;;;;2089149;28;20048;-66
2021/09/22 00:43:33;;;;;;;14.43;9.50;;;12.20;99.90;;;;;;2089299;28;20017;-68
2021/09/22 00:45:10;;;;;;;13.20;9.82;;;12.10;99.90;;;;;;2089199;28;20037;-69
2021/09/22 00:46:11;;;;;;;13.80;9.82;;;12.20;99.90;;;;;;2063729;28;20026;-69
2021/09/22 00:47:14;;;;;;;15.07;10.13;;;12.10;99.90;;;;;;2063843;28;20030;-68
2021/09/22 00:48:14;;;;;;;14.90;10.00;;;12.10;99.90;;;;;;2067432;28;20034;-69
2021/09/22 00:49:22;;;;;;;15.82;10.35;;;12.10;99.90;;;;;;2087820;28;20128;-68
2021/09/22 00:50:26;;;;;;;14.00;9.57;;;12.10;99.90;;;;;;2080708;28;20495;-69
2021/09/22 00:51:28;;;;;;;13.57;9.82;;;12.10;99.90;;;;;;2088680;28;20039;-68
2021/09/22 00:52:29;;;;;;;13.15;9.65;;;12.10;99.90;;;;;;2097141;28;20032;-69
2021/09/22 00:53:30;;;;;;;11.52;9.18;;;12.20;99.90;;;;;;2088661;28;20024;-68
2021/09/22 00:54:31;;;;;;;12.20;8.90;;;12.10;99.90;;;;;;2080454;28;20079;-69
2021/09/22 00:55:32;;;;;;;13.07;9.10;;;12.10;99.90;;;;;;2080385;28;20029;-69
2021/09/22 00:56:32;;;;;;;14.35;9.98;;;12.20;99.90;;;;;;2080514;28;20180;-68
2021/09/22 00:57:45;;;;;;;15.13;9.95;;;12.10;99.90;;;;;;2080135;28;20039;-69
2021/09/22 00:58:45;;;;;;;12.40;8.77;;;12.10;99.90;;;;;;2073333;28;20144;-66
2021/09/22 00:59:46;;;;;;;13.50;9.68;;;12.10;99.90;;;;;;2071233;28;20547;-67
2021/09/22 01:00:47;;;;;;;12.48;9.30;;;12.10;99.90;;;;;;2071989;28;20038;-67
2021/09/22 01:01:50;;;;;;;12.68;10.00;;;12.20;99.90;;;;;;2071978;28;20026;-67
2021/09/22 01:02:50;;;;;;;15.32;9.75;;;12.20;99.90;;;;;;2080352;28;20022;-68
2021/09/22 01:03:51;;;;;;;12.82;9.75;;;12.20;99.90;;;;;;2088450;28;20029;-66
2021/09/22 01:04:52;;;;;;;13.60;9.93;;;12.20;99.90;;;;;;2089117;28;20075;-67
2021/09/22 01:05:53;;;;;;;14.57;9.60;;;12.20;99.90;;;;;;2089095;28;20032;-67
2021/09/22 01:06:54;;;;;;;13.23;9.70;;;12.20;99.90;;;;;;2089082;28;20029;-67
2021/09/22 01:07:55;;;;;;;14.98;10.23;;;12.10;99.90;;;;;;2089023;28;20056;-69
2021/09/22 01:08:57;;;;;;;15.10;10.02;;;12.20;99.90;;;;;;2088832;28;20550;-67
2021/09/22 01:09:58;;;;;;;13.18;10.00;;;12.10;99.90;;;;;;2087564;28;20118;-67
2021/09/22 01:11:00;;;;;;;13.48;9.90;;;12.10;99.90;;;;;;2080171;28;20100;-67
2021/09/22 01:12:01;;;;;;;14.35;9.75;;;12.20;99.90;;;;;;2088455;28;20028;-68
2021/09/22 01:13:01;;;;;;;14.43;10.20;;;12.10;99.90;;;;;;2088391;28;20462;-67
2021/09/22 01:14:02;;;;;;;14.07;9.88;;;12.10;99.90;;;;;;2080179;28;20087;-67
2021/09/22 01:15:04;;;;;;;13.32;9.93;;;12.10;99.90;;;;;;2088566;28;20033;-68
2021/09/22 01:16:06;;;;;;;16.30;9.70;;;12.10;99.90;;;;;;2088381;28;20468;-67
2021/09/22 01:17:07;;;;;;;13.73;10.50;;;12.10;99.90;;;;;;2080274;28;20033;-67
2021/09/22 01:18:13;;;;;;;15.93;10.57;;;12.20;99.90;;;;;;2088175;28;20190;-68
2021/09/22 01:19:13;;;;;;;13.00;10.15;;;12.10;99.90;;;;;;2087909;28;20033;-67
2021/09/22 01:20:14;;;;;;;14.75;10.38;;;12.10;99.90;;;;;;2089181;28;20048;-68
2021/09/22 01:21:20;;;;;;;13.88;9.75;;;12.20;99.90;;;;;;2088435;28;20359;-68
2021/09/22 01:22:25;;;;;;;14.98;9.90;;;12.10;99.90;;;;;;2081299;28;20583;-68
2021/09/22 01:23:33;;;;;;;14.32;10.35;;;12.10;99.90;;;;;;2089555;28;20021;-68
2021/09/22 01:24:39;;;;;;;14.93;10.45;;;12.10;99.90;;;;;;2088580;28;20052;-68
2021/09/22 01:25:43;;;;;;;14.50;10.35;;;12.10;99.90;;;;;;2079980;28;20037;-68
2021/09/22 01:26:46;;;;;;;14.82;10.98;;;12.10;99.90;;;;;;2080398;28;20105;-68
2021/09/22 01:27:56;;;;;;;16.20;10.35;;;12.10;99.90;;;;;;2080192;28;20033;-67
2021/09/22 01:28:57;;;;;;;15.95;10.75;;;12.10;99.90;;;;;;2081451;28;20032;-68
2021/09/22 01:29:58;;;;;;;18.00;10.52;;;12.10;99.90;;;;;;2079855;28;20041;-69
2021/09/22 01:31:04;;;;;;;14.30;10.50;;;12.10;99.90;;;;;;2089669;28;20021;-68
2021/09/22 01:32:11;;;;;;;14.40;10.70;;;12.00;99.90;;;;;;2088621;28;20041;-68
2021/09/22 01:33:16;;;;;;;15.45;10.63;;;12.00;99.90;;;;;;2081121;28;20037;-68
2021/09/22 01:34:40;;;;;;;17.23;10.95;;;12.00;99.90;;;;;;2085441;28;20037;-68
2021/09/22 01:35:47;;;;;;;15.98;11.30;;;12.00;99.90;;;;;;2088090;28;20025;-67
2021/09/22 01:36:51;;;;;;;14.48;10.95;;;12.00;99.90;;;;;;2080358;28;20595;-68
2021/09/22 01:37:52;;;;;;;15.63;10.65;;;12.00;99.90;;;;;;2079810;28;20087;-68
2021/09/22 01:39:16;;;;;;;14.80;10.38;;;12.00;99.90;;;;;;2090640;28;20571;-68
2021/09/22 01:40:19;;;;;;;16.77;10.65;;;12.10;99.90;;;;;;2088087;28;20029;-67
2021/09/22 01:41:20;;;;;;;17.27;10.82;;;12.00;99.90;;;;;;2079935;28;20025;-67
2021/09/22 01:42:26;;;;;;;17.45;10.43;;;12.00;99.90;;;;;;2088751;28;20481;-67
2021/09/22 01:43:33;;;;;;;14.65;10.25;;;12.00;99.90;;;;;;2095933;28;20024;-67
2021/09/22 01:44:35;;;;;;;15.35;11.10;;;12.00;99.90;;;;;;2088243;28;20013;-67
2021/09/22 01:45:42;;;;;;;17.48;11.45;;;12.00;99.90;;;;;;2080743;28;20025;-68
2021/09/22 01:46:43;;;;;;;17.35;11.07;;;12.00;99.90;;;;;;2079947;28;20115;-67
2021/09/22 01:47:44;;;;;;;17.88;11.43;;;12.00;99.90;;;;;;2088191;28;20029;-67
2021/09/22 01:48:45;;;;;;;16.50;10.93;;;12.00;99.90;;;;;;2088247;28;20025;-67
2021/09/22 01:49:46;;;;;;;16.13;11.27;;;12.00;99.90;;;;;;2095782;28;20016;-67
2021/09/22 01:50:48;;;;;;;15.00;10.50;;;12.00;99.90;;;;;;2088197;28;20033;-67
2021/09/22 01:51:58;;;;;;;17.58;11.02;;;12.00;99.90;;;;;;2088189;28;20067;-67
2021/09/22 01:52:59;;;;;;;15.00;10.60;;;12.00;99.90;;;;;;2088241;28;20033;-67
2021/09/22 01:54:00;;;;;;;14.30;10.60;;;12.00;99.90;;;;;;2088260;28;20071;-67
2021/09/22 01:55:04;;;;;;;18.10;10.90;;;12.00;99.90;;;;;;2080223;28;20025;-68
2021/09/22 01:56:08;;;;;;;17.30;10.85;;;12.00;99.90;;;;;;2080491;28;20064;-68
2021/09/22 01:57:09;;;;;;;16.30;10.82;;;12.00;99.90;;;;;;2088860;28;20066;-68
2021/09/22 01:58:10;;;;;;;16.05;11.15;;;12.00;99.90;;;;;;2089381;28;20102;-68
2021/09/22 01:59:28;;;;;;;16.42;11.23;;;11.90;99.90;;;;;;2088181;28;20583;-67
2021/09/22 02:00:50;;;;;;;16.25;11.05;;;12.00;99.90;;;;;;2088712;28;20041;-67
2021/09/22 02:02:00;;;;;;;17.08;11.27;;;12.00;99.90;;;;;;2088489;28;20536;-68
2021/09/22 02:03:16;;;;;;;17.25;11.05;;;12.00;99.90;;;;;;2081755;28;20120;-68
2021/09/22 02:04:24;;;;;;;15.50;10.65;;;11.90;99.90;;;;;;2089552;28;20556;-68
2021/09/22 02:05:32;;;;;;;15.27;10.80;;;12.00;99.90;;;;;;2088118;28;20520;-67
2021/09/22 02:06:47;;;;;;;15.95;10.40;;;12.00;99.90;;;;;;2081904;28;20025;-67
2021/09/22 02:07:50;;;;;;;17.52;11.68;;;12.00;99.90;;;;;;2080086;28;20592;-67
2021/09/22 02:08:56;;;;;;;17.23;11.88;;;12.00;99.90;;;;;;2088686;28;20036;-68
2021/09/22 02:10:15;;;;;;;15.60;10.55;;;12.00;99.90;;;;;;2087981;28;20052;-67
2021/09/22 02:11:16;;;;;;;17.70;11.48;;;12.00;99.90;;;;;;2079919;28;20479;-68
2021/09/22 02:12:17;;;;;;;17.10;11.43;;;12.00;99.90;;;;;;2088592;28;20025;-69
2021/09/22 02:13:18;;;;;;;17.63;11.02;;;12.00;99.90;;;;;;2088312;28;20048;-67
2021/09/22 02:14:19;;;;;;;16.17;11.40;;;12.00;99.90;;;;;;2088161;28;20067;-68
2021/09/22 02:15:26;;;;;;;16.75;11.40;;;12.00;99.90;;;;;;2088160;28;20032;-69
2021/09/22 02:16:53;;;;;;;17.08;10.32;;;12.00;99.90;;;;;;2087843;28;20100;-68
2021/09/22 02:17:56;;;;;;;17.23;11.18;;;12.10;99.90;;;;;;2088259;28;20032;-67
2021/09/22 02:18:57;;;;;;;18.10;11.02;;;12.00;99.90;;;;;;2080233;28;20036;-69
2021/09/22 02:19:58;;;;;;;16.23;10.52;;;12.10;99.90;;;;;;2079203;28;20032;-67
2021/09/22 02:21:10;;;;;;;16.40;10.85;;;12.00;99.90;;;;;;2080981;28;20026;-68
2021/09/22 02:22:12;;;;;;;14.30;10.40;;;12.10;99.90;;;;;;2088155;28;20074;-68
2021/09/22 02:23:29;;;;;;;16.65;11.32;;;12.10;99.90;;;;;;2088135;28;20029;-68
2021/09/22 02:24:37;;;;;;;16.02;11.75;;;12.10;99.90;;;;;;2080476;28;20053;-68
2021/09/22 02:25:38;;;;;;;16.45;11.13;;;12.10;99.90;;;;;;2080120;28;20029;-68
2021/09/22 02:26:38;;;;;;;18.50;11.68;;;12.10;99.90;;;;;;2088030;28;20103;-68
2021/09/22 02:27:41;;;;;;;19.05;11.68;;;12.10;99.90;;;;;;2087946;28;20021;-68
2021/09/22 02:28:44;;;;;;;16.73;11.32;;;12.10;99.90;;;;;;2079940;28;20026;-68
2021/09/22 02:29:47;;;;;;;17.88;11.10;;;12.10;99.90;;;;;;2078965;28;20025;-68
2021/09/22 02:30:47;;;;;;;15.73;10.95;;;12.10;99.90;;;;;;2079764;28;20033;-68
2021/09/22 02:31:49;;;;;;;16.40;11.20;;;12.10;99.90;;;;;;2087953;28;20137;-68
2021/09/22 02:32:55;;;;;;;16.98;11.55;;;12.10;99.90;;;;;;2087593;28;20116;-68
2021/09/22 02:33:57;;;;;;;15.70;10.98;;;12.10;99.90;;;;;;2079798;28;20650;-69
2021/09/22 02:34:58;;;;;;;14.20;10.40;;;12.10;99.90;;;;;;2071531;28;20121;-68
2021/09/22 02:35:59;;;;;;;15.48;11.00;;;12.10;99.90;;;;;;2071657;28;20048;-69
2021/09/22 02:37:26;;;;;;;21.10;10.75;;;12.10;99.90;;;;;;2083337;28;20029;-68
2021/09/22 02:38:44;;;;;;;17.30;11.50;;;12.10;99.90;;;;;;2081914;28;20068;-68
2021/09/22 02:39:46;;;;;;;16.73;11.75;;;12.10;99.90;;;;;;2087291;28;20186;-68
2021/09/22 02:40:48;;;;;;;16.52;11.35;;;12.10;99.90;;;;;;2079855;28;20025;-69
2021/09/22 02:41:56;;;;;;;20.23;11.25;;;12.10;99.90;;;;;;2080664;28;20127;-68
2021/09/22 02:42:58;;;;;;;15.57;10.73;;;12.10;99.90;;;;;;2079874;28;20025;-68
2021/09/22 02:44:03;;;;;;;13.95;10.63;;;12.10;99.90;;;;;;2080314;28;20021;-68
2021/09/22 02:45:16;;;;;;;15.68;10.93;;;12.10;99.90;;;;;;2081436;28;20041;-68
2021/09/22 02:46:19;;;;;;;17.33;11.50;;;12.10;99.90;;;;;;2080035;28;20022;-68
2021/09/22 02:47:32;;;;;;;16.00;10.95;;;12.10;99.90;;;;;;2081353;28;20057;-68
2021/09/22 02:48:33;;;;;;;15.68;10.50;;;12.10;99.90;;;;;;2087866;28;20418;-68
2021/09/22 02:49:35;;;;;;;15.02;10.43;;;12.10;99.90;;;;;;2087172;28;20076;-69
2021/09/22 02:50:41;;;;;;;16.58;11.05;;;12.00;99.90;;;;;;2080245;28;20021;-68
2021/09/22 02:51:47;;;;;;;20.20;11.27;;;12.00;99.90;;;;;;2088604;28;20098;-68
2021/09/22 02:52:48;;;;;;;15.30;10.80;;;12.10;99.90;;;;;;2095838;28;20028;-68
2021/09/22 02:53:49;;;;;;;16.65;11.00;;;12.10;99.90;;;;;;2079574;28;20072;-68
2021/09/22 02:54:52;;;;;;;16.05;11.05;;;12.10;99.90;;;;;;2071959;28;20030;-69
2021/09/22 02:55:57;;;;;;;14.18;10.10;;;12.00;99.90;;;;;;2088278;28;20427;-67
2021/09/22 02:56:57;;;;;;;14.85;10.18;;;12.10;99.90;;;;;;2087688;28;20048;-67
2021/09/22 02:57:58;;;;;;;16.10;10.63;;;12.10;99.90;;;;;;2087765;28;20033;-67
2021/09/22 02:59:00;;;;;;;13.88;10.25;;;12.10;99.90;;;;;;2095959;28;20024;-68
2021/09/22 03:00:02;;;;;;;13.23;9.80;;;12.10;99.90;;;;;;2086966;28;20021;-67
2021/09/22 03:01:03;;;;;;;17.77;10.52;;;12.10;99.90;;;;;;2087749;28;20120;-67
2021/09/22 03:02:04;;;;;;;17.45;10.20;;;12.10;99.90;;;;;;2079507;28;20108;-67
2021/09/22 03:03:06;;;;;;;13.05;9.65;;;12.20;99.90;;;;;;2079661;28;20494;-67
2021/09/22 03:04:08;;;;;;;16.40;10.40;;;12.20;99.90;;;;;;2080540;28;20120;-67
2021/09/22 03:05:09;;;;;;;14.70;10.07;;;12.20;99.90;;;;;;2081088;28;20025;-68
2021/09/22 03:06:10;;;;;;;13.68;9.50;;;12.20;99.90;;;;;;2089284;28;20037;-67
2021/09/22 03:07:11;;;;;;;12.68;9.07;;;12.20;99.90;;;;;;2097319;28;20043;-67
2021/09/22 03:08:12;;;;;;;15.32;10.07;;;12.20;99.90;;;;;;2089300;28;20067;-68
2021/09/22 03:09:13;;;;;;;13.85;9.77;;;12.20;99.90;;;;;;2080362;28;20033;-65
2021/09/22 03:10:13;;;;;;;16.35;10.18;;;12.20;99.90;;;;;;2081034;28;20025;-69
2021/09/22 03:11:15;;;;;;;14.02;9.73;;;12.20;99.90;;;;;;2089277;28;20036;-68
2021/09/22 03:12:16;;;;;;;16.50;10.57;;;12.20;99.90;;;;;;2089165;28;20119;-69
2021/09/22 03:13:17;;;;;;;17.05;10.10;;;12.20;99.90;;;;;;2080994;28;20029;-69
2021/09/22 03:14:17;;;;;;;16.05;10.27;;;12.20;99.90;;;;;;2089254;28;20036;-69
2021/09/22 03:15:24;;;;;;;15.10;9.95;;;12.20;99.90;;;;;;2089306;28;20021;-69
2021/09/22 03:16:26;;;;;;;14.52;9.80;;;12.30;99.90;;;;;;2073056;28;20056;-69
2021/09/22 03:17:27;;;;;;;14.57;9.00;;;12.30;99.90;;;;;;2081248;28;20815;-69
2021/09/22 03:18:27;;;;;;;16.27;9.85;;;12.30;99.90;;;;;;2089927;28;20037;-69
2021/09/22 03:19:28;;;;;;;17.10;10.73;;;12.30;99.90;;;;;;2089253;28;20041;-69
2021/09/22 03:20:28;;;;;;;16.98;10.23;;;12.30;99.90;;;;;;2089188;28;20033;-69
2021/09/22 03:21:30;;;;;;;14.32;10.07;;;12.30;99.90;;;;;;2089450;28;20663;-69
2021/09/22 03:22:31;;;;;;;13.48;9.30;;;12.30;99.90;;;;;;2089132;28;20437;-68
2021/09/22 03:23:46;;;;;;;14.95;9.05;;;12.30;99.90;;;;;;2082859;28;20120;-68
2021/09/22 03:24:46;;;;;;;14.20;9.15;;;12.30;99.90;;;;;;2080803;28;20032;-69
2021/09/22 03:25:48;;;;;;;11.98;8.57;;;12.30;99.90;;;;;;2081083;28;20021;-69
2021/09/22 03:26:49;;;;;;;14.25;8.90;;;12.30;99.90;;;;;;2080847;28;20029;-69
2021/09/22 03:27:50;;;;;;;15.93;10.57;;;12.30;99.90;;;;;;2081378;28;20060;-69
2021/09/22 03:28:53;;;;;;;17.17;10.30;;;12.30;99.90;;;;;;2081363;28;20770;-68
2021/09/22 03:29:56;;;;;;;14.90;9.27;;;12.30;99.90;;;;;;2080346;28;20038;-69
2021/09/22 03:30:57;;;;;;;18.45;10.30;;;12.30;99.90;;;;;;2072539;28;20124;-69
2021/09/22 03:31:59;;;;;;;18.33;9.82;;;12.30;99.90;;;;;;2081196;28;20144;-69
2021/09/22 03:33:00;;;;;;;14.43;9.38;;;12.30;99.90;;;;;;2089024;28;20529;-68
2021/09/22 03:34:00;;;;;;;14.98;9.52;;;12.30;99.90;;;;;;2080835;28;20033;-69
2021/09/22 03:35:01;;;;;;;20.17;10.35;;;12.30;99.90;;;;;;2089033;28;20110;-68
2021/09/22 03:36:03;;;;;;;17.38;9.50;;;12.30;99.90;;;;;;2089012;28;20453;-69
2021/09/22 03:37:04;;;;;;;16.33;10.35;;;12.30;99.90;;;;;;2081095;28;20037;-68
2021/09/22 03:38:06;;;;;;;13.50;9.85;;;12.30;99.90;;;;;;2080736;28;20032;-69
2021/09/22 03:39:07;;;;;;;14.70;9.43;;;12.30;99.90;;;;;;2072603;28;20038;-68
2021/09/22 03:40:08;;;;;;;17.30;9.82;;;12.30;99.90;;;;;;2080149;28;20477;-69
2021/09/22 03:41:09;;;;;;;15.63;10.02;;;12.30;99.90;;;;;;2088982;28;20025;-69
2021/09/22 03:42:10;;;;;;;14.43;9.40;;;12.30;99.90;;;;;;2080770;28;20025;-69
2021/09/22 03:43:11;;;;;;;13.43;9.75;;;12.30;99.90;;;;;;2089273;28;20032;-68
2021/09/22 03:44:11;;;;;;;13.05;9.13;;;12.30;99.90;;;;;;2089062;28;20367;-68
2021/09/22 03:45:15;;;;;;;15.35;8.90;;;12.30;99.90;;;;;;2081256;28;20036;-68
2021/09/22 03:46:16;;;;;;;15.25;9.70;;;12.30;99.90;;;;;;2080736;28;20032;-68
2021/09/22 03:47:16;;;;;;;14.93;9.05;;;12.30;99.90;;;;;;2080722;28;20037;-69
2021/09/22 03:48:17;;;;;;;14.32;8.60;;;12.30;99.90;;;;;;2080901;28;20398;-69
2021/09/22 03:49:18;;;;;;;18.75;9.57;;;12.30;99.90;;;;;;2088433;28;20094;-69
2021/09/22 03:50:19;;;;;;;14.55;9.20;;;12.30;99.90;;;;;;2088895;28;20107;-67
2021/09/22 03:51:36;;;;;;;18.65;9.75;;;12.30;99.90;;;;;;2082805;28;20029;-69
2021/09/22 03:52:36;;;;;;;16.10;9.95;;;12.30;99.90;;;;;;2088990;28;20474;-68
2021/09/22 03:53:37;;;;;;;13.65;9.20;;;12.30;99.90;;;;;;2088991;28;20025;-68
2021/09/22 03:54:38;;;;;;;15.95;9.80;;;12.30;99.90;;;;;;2080680;28;20128;-67
2021/09/22 03:55:39;;;;;;;17.17;10.27;;;12.30;99.90;;;;;;2089039;28;20028;-68
2021/09/22 03:56:39;;;;;;;16.52;10.38;;;12.30;99.90;;;;;;2088906;28;20033;-68
2021/09/22 03:57:40;;;;;;;18.88;10.45;;;12.30;99.90;;;;;;2080770;28;20053;-68
2021/09/22 03:58:41;;;;;;;17.00;10.10;;;12.30;99.90;;;;;;2080588;28;20402;-68
2021/09/22 03:59:42;;;;;;;17.20;9.93;;;12.30;99.90;;;;;;2079869;28;20116;-68
2021/09/22 04:00:43;;;;;;;20.00;9.75;;;12.30;99.90;;;;;;2080475;28;20014;-67
2021/09/22 04:01:44;;;;;;;23.17;10.45;;;12.30;99.90;;;;;;2080595;28;20018;-67
2021/09/22 04:02:45;;;;;;;19.67;10.02;;;12.30;99.90;;;;;;2088788;28;20029;-67
2021/09/22 04:03:45;;;;;;;17.67;9.90;;;12.30;99.90;;;;;;2097093;28;20051;-67
2021/09/22 04:04:46;;;;;;;17.67;9.90;;;12.30;99.90;;;;;;2080747;28;20049;-68
2021/09/22 04:05:47;;;;;;;17.42;9.95;;;12.30;99.90;;;;;;2080495;28;20022;-67
2021/09/22 04:06:48;;;;;;;19.00;10.80;;;12.30;99.90;;;;;;2080728;28;20064;-68
2021/09/22 04:07:48;;;;;;;16.30;9.75;;;12.30;99.90;;;;;;2080627;28;20040;-68
2021/09/22 04:08:50;;;;;;;17.33;9.50;;;12.30;99.90;;;;;;2080651;28;20025;-67
2021/09/22 04:09:52;;;;;;;18.95;10.30;;;12.30;99.90;;;;;;2079974;28;20026;-67
2021/09/22 04:10:52;;;;;;;17.58;10.10;;;12.30;99.90;;;;;;2088851;28;20033;-67
2021/09/22 04:11:53;;;;;;;15.55;8.90;;;12.30;99.90;;;;;;2097194;28;20036;-67
2021/09/22 04:12:54;;;;;;;14.07;8.95;;;12.30;99.90;;;;;;2088609;28;20033;-68
2021/09/22 04:13:57;;;;;;;14.82;8.73;;;12.40;99.90;;;;;;2097291;28;20412;-68
2021/09/22 04:14:58;;;;;;;17.33;9.45;;;12.40;99.90;;;;;;2088924;28;20033;-68
2021/09/22 04:16:00;;;;;;;18.85;9.73;;;12.40;99.90;;;;;;2080088;28;20152;-67
2021/09/22 04:17:00;;;;;;;20.85;9.77;;;12.40;99.90;;;;;;2080743;28;20029;-68
2021/09/22 04:18:01;;;;;;;19.45;9.50;;;12.30;99.90;;;;;;2088884;28;20036;-68
2021/09/22 04:19:02;;;;;;;15.07;8.70;;;12.40;99.90;;;;;;2088721;28;20044;-67
2021/09/22 04:20:04;;;;;;;18.70;9.50;;;12.40;99.90;;;;;;2079874;28;20037;-66
2021/09/22 04:21:08;;;;;;;20.67;9.48;;;12.40;99.90;;;;;;2081089;28;20033;-67
2021/09/22 04:22:09;;;;;;;19.15;9.68;;;12.40;99.90;;;;;;2080469;28;20414;-68
2021/09/22 04:23:10;;;;;;;16.45;9.57;;;12.40;99.90;;;;;;2080471;28;20017;-67
2021/09/22 04:24:11;;;;;;;17.95;9.45;;;12.40;99.90;;;;;;2088664;28;20508;-68
2021/09/22 04:25:12;;;;;;;14.63;8.20;;;12.40;99.90;;;;;;2096984;28;20483;-67
2021/09/22 04:26:25;;;;;;;18.80;9.50;;;12.40;99.90;;;;;;2081996;28;20033;-68
2021/09/22 04:27:33;;;;;;;19.73;9.77;;;12.40;99.90;;;;;;2073338;28;20535;-67
2021/09/22 04:28:45;;;;;;;22.25;9.70;;;12.40;99.90;;;;;;2076361;28;20037;-68
2021/09/22 04:30:05;;;;;;;17.88;9.65;;;12.30;99.90;;;;;;2088468;28;20025;-67
2021/09/22 04:31:24;;;;;;;16.08;9.02;;;12.30;99.90;;;;;;2089389;28;20116;-67
2021/09/22 04:32:43;;;;;;;17.02;9.25;;;12.30;99.90;;;;;;2089558;28;20033;-68
2021/09/22 04:34:02;;;;;;;18.80;8.60;;;12.30;99.90;;;;;;2089623;28;20033;-68
2021/09/22 04:35:30;;;;;;;20.15;9.88;;;12.30;99.90;;;;;;2065779;28;20053;-69
2021/09/22 04:36:50;;;;;;;22.13;9.27;;;12.30;99.90;;;;;;2089986;28;20057;-69
2021/09/22 04:38:09;;;;;;;18.85;9.27;;;12.30;99.90;;;;;;2089633;28;20041;-68
2021/09/22 04:39:28;;;;;;;21.67;9.05;;;12.40;99.90;;;;;;2088644;28;20037;-68
2021/09/22 04:40:47;;;;;;;17.13;8.90;;;12.40;99.90;;;;;;2088929;28;20029;-68
2021/09/22 04:42:07;;;;;;;20.42;9.15;;;12.40;99.90;;;;;;2093939;28;20021;-69
2021/09/22 04:43:26;;;;;;;17.05;8.48;;;12.40;99.90;;;;;;2092534;28;20041;-69
2021/09/22 04:44:45;;;;;;;22.77;10.00;;;12.40;99.90;;;;;;2089740;28;20033;-68
2021/09/22 04:46:05;;;;;;;17.73;9.15;;;12.30;99.90;;;;;;2089999;28;20044;-68
2021/09/22 04:47:24;;;;;;;19.35;9.27;;;12.30;99.90;;;;;;2090154;28;20029;-69
2021/09/22 04:48:43;;;;;;;17.45;9.45;;;12.30;99.90;;;;;;2089693;28;20498;-68
2021/09/22 04:50:04;;;;;;;24.55;9.90;;;12.30;99.90;;;;;;2089012;28;20028;-68
2021/09/22 04:51:23;;;;;;;;;;;12.30;99.90;;;;;;2090022;28;20040;-68
2021/09/22 04:52:42;;;;;;;25.05;9.75;;;12.30;99.90;;;;;;2089632;28;19904;-69
2021/09/22 04:54:01;;;;;;;22.35;9.27;;;12.30;99.90;;;;;;2089483;28;20044;-68
2021/09/22 04:55:20;;;;;;;24.33;9.63;;;12.30;99.90;;;;;;2089445;28;20883;-68
2021/09/22 04:56:39;;;;;;;19.88;9.55;;;12.30;99.90;;;;;;2089275;28;20033;-69
2021/09/22 04:57:58;;;;;;;25.25;9.70;;;12.20;99.90;;;;;;2089403;28;20033;-68
2021/09/22 04:59:17;;;;;;;20.95;8.55;;;12.20;99.90;;;;;;2088763;28;20041;-69
2021/09/22 05:00:37;;;;;;;25.17;8.75;;;12.20;99.90;;;;;;2089394;28;20041;-68
2021/09/22 05:01:56;;;;;;;24.27;8.93;;;12.20;99.90;;;;;;2089472;28;20029;-68
2021/09/22 05:03:15;;;;;;;25.48;9.27;;;12.20;99.90;;;;;;2089392;28;20041;-68
2021/09/22 05:04:51;;;;;;;28.25;9.63;;;12.20;99.90;;;;;;2080075;28;20028;-68
2021/09/22 05:06:11;;;;;;;22.45;8.98;;;12.20;99.90;;;;;;2080028;28;20038;-68
2021/09/22 05:07:30;;;;;;;19.98;8.85;;;12.20;99.90;;;;;;2086137;28;20391;-68
2021/09/22 05:08:49;;;;;;;26.45;9.18;;;12.20;99.90;;;;;;2089060;28;20417;-68
2021/09/22 05:10:09;;;;;;;23.60;8.98;;;12.20;99.90;;;;;;2088317;28;20760;-68
2021/09/22 05:11:28;;;;;;;22.70;9.00;;;12.20;99.90;;;;;;2088492;28;20116;-67
2021/09/22 05:12:47;;;;;;;21.10;8.80;;;12.20;99.90;;;;;;2085383;28;20502;-68
2021/09/22 05:14:06;;;;;;;17.17;7.88;;;12.20;99.90;;;;;;2089142;28;20072;-69
2021/09/22 05:15:26;;;;;;;19.73;8.65;;;12.10;99.90;;;;;;2089405;28;20033;-68
2021/09/22 05:16:45;;;;;;;25.05;9.52;;;12.10;99.90;;;;;;2089113;28;20045;-69
2021/09/22 05:18:04;;;;;;;23.52;9.38;;;12.10;99.90;;;;;;2089182;28;20107;-68
2021/09/22 05:19:24;;;;;;;24.33;9.05;;;12.10;99.90;;;;;;2089001;28;20036;-70
2021/09/22 05:20:43;;;;;;;24.73;9.10;;;12.10;99.90;;;;;;2089382;28;20382;-70
2021/09/22 05:22:03;;;;;;;26.13;9.30;;;12.10;99.90;;;;;;2088188;28;20041;-67
2021/09/22 05:23:23;;;;;;;20.10;8.50;;;12.10;99.90;;;;;;2088600;28;20486;-67
2021/09/22 05:24:43;;;;;;;25.52;9.23;;;12.10;99.90;;;;;;2088359;28;20025;-68
2021/09/22 05:26:13;;;;;;;25.15;9.10;;;12.10;99.90;;;;;;2063355;28;20497;-68
2021/09/22 05:27:32;;;;;;;23.77;9.82;;;12.10;99.90;;;;;;2068376;28;20101;-68
2021/09/22 05:28:51;;;;;;;24.63;8.85;;;12.20;99.90;;;;;;2088876;28;20036;-69
2021/09/22 05:30:11;;;;;;;23.95;8.95;;;12.20;99.90;;;;;;2088004;28;20521;-67
2021/09/22 05:31:50;;;;;;;28.95;9.60;;;12.20;99.90;;;;;;2095520;28;20043;-68
2021/09/22 05:33:10;;;;;;;23.85;9.48;;;12.20;99.90;;;;;;2087812;28;20128;-68
2021/09/22 05:34:31;;;;;;;22.52;8.70;;;12.20;99.90;;;;;;2068635;28;20511;-67
2021/09/22 05:35:51;;;;;;;20.75;8.60;;;12.20;99.90;;;;;;2096327;28;20479;-68
2021/09/22 05:37:10;;;;;;;27.73;9.07;;;12.20;99.90;;;;;;2095166;28;20040;-68